sensor_id;sensor_type;location;lat;lon;timestamp;temperature;humidity
43227;DHT22;28839;52.404;9.808;2023-04-03T00:03:59;1.00;99.90
43227;DHT22;28839;52.404;9.808;2023-04-03T00:10:53;0.90;99.90
43227;DHT22;28839;52.404;9.808;2023-04-03T00:17:48;0.80;99.90
43227;DHT22;28839;52.404;9.808;2023-04-03T00:24:42;0.70;99.90
43227;DHT22;28839;52.404;9.808;2023-04-03T00:31:35;0.70;99.90
43227;DHT22;28839;52.404;9.808;2023-04-03T00:38:31;0.60;99.90
43227;DHT22;28839;52.404;9.808;2023-04-03T00:45:33;0.50;99.90
43227;DHT22;28839;52.404;9.808;2023-04-03T00:52:29;0.50;99.90
43227;DHT22;28839;52.404;9.808;2023-04-03T00:59:29;0.60;99.90
43227;DHT22;28839;52.404;9.808;2023-04-03T01:06:27;0.40;99.90
43227;DHT22;28839;52.404;9.808;2023-04-03T01:13:26;0.30;99.90
43227;DHT22;28839;52.404;9.808;2023-04-03T01:20:48;0.20;99.90
43227;DHT22;28839;52.404;9.808;2023-04-03T01:27:43;0.20;99.90
43227;DHT22;28839;52.404;9.808;2023-04-03T01:34:38;0.10;99.90
43227;DHT22;28839;52.404;9.808;2023-04-03T01:41:32;0.10;99.90
43227;DHT22;28839;52.404;9.808;2023-04-03T01:48:26;0.10;99.90
43227;DHT22;28839;52.404;9.808;2023-04-03T01:55:21;-0.10;99.90
43227;DHT22;28839;52.404;9.808;2023-04-03T02:02:15;-0.20;99.90
43227;DHT22;28839;52.404;9.808;2023-04-03T02:09:09;-0.20;99.90
43227;DHT22;28839;52.404;9.808;2023-04-03T02:16:08;-0.30;99.90
43227;DHT22;28839;52.404;9.808;2023-04-03T02:23:03;-0.50;99.90
43227;DHT22;28839;52.404;9.808;2023-04-03T02:29:57;-0.50;99.90
43227;DHT22;28839;52.404;9.808;2023-04-03T02:36:53;-0.50;99.90
43227;DHT22;28839;52.404;9.808;2023-04-03T02:43:47;-0.60;99.90
43227;DHT22;28839;52.404;9.808;2023-04-03T02:50:41;-0.80;99.90
43227;DHT22;28839;52.404;9.808;2023-04-03T02:57:36;-0.90;99.90
43227;DHT22;28839;52.404;9.808;2023-04-03T03:04:30;-1.00;99.90
43227;DHT22;28839;52.404;9.808;2023-04-03T03:11:24;-1.00;99.90
43227;DHT22;28839;52.404;9.808;2023-04-03T03:18:20;-1.00;99.90
43227;DHT22;28839;52.404;9.808;2023-04-03T03:25:14;-1.10;99.90
43227;DHT22;28839;52.404;9.808;2023-04-03T03:32:07;-1.10;99.90
43227;DHT22;28839;52.404;9.808;2023-04-03T03:39:03;-1.10;99.90
43227;DHT22;28839;52.404;9.808;2023-04-03T03:45:56;-1.20;99.90
43227;DHT22;28839;52.404;9.808;2023-04-03T03:52:50;-1.30;99.90
43227;DHT22;28839;52.404;9.808;2023-04-03T03:59:45;-1.30;99.90
43227;DHT22;28839;52.404;9.808;2023-04-03T04:06:41;-1.30;99.90
43227;DHT22;28839;52.404;9.808;2023-04-03T04:13:34;-1.20;99.90
43227;DHT22;28839;52.404;9.808;2023-04-03T04:20:30;-1.40;99.90
43227;DHT22;28839;52.404;9.808;2023-04-03T04:27:24;-1.40;99.90
43227;DHT22;28839;52.404;9.808;2023-04-03T04:34:17;-1.40;99.90
43227;DHT22;28839;52.404;9.808;2023-04-03T04:41:13;-1.30;99.90
43227;DHT22;28839;52.404;9.808;2023-04-03T04:48:07;-1.30;99.90
43227;DHT22;28839;52.404;9.808;2023-04-03T04:55:01;-1.30;99.90
43227;DHT22;28839;52.404;9.808;2023-04-03T05:01:56;-1.30;99.90
43227;DHT22;28839;52.404;9.808;2023-04-03T05:08:50;-1.20;99.90
43227;DHT22;28839;52.404;9.808;2023-04-03T05:15:45;-1.20;99.90
43227;DHT22;28839;52.404;9.808;2023-04-03T05:22:40;-1.20;99.90
43227;DHT22;28839;52.404;9.808;2023-04-03T05:29:34;-1.10;99.90
43227;DHT22;28839;52.404;9.808;2023-04-03T05:36:28;-1.00;99.90
43227;DHT22;28839;52.404;9.808;2023-04-03T05:43:23;-1.00;99.90
43227;DHT22;28839;52.404;9.808;2023-04-03T05:50:17;-1.00;99.90
43227;DHT22;28839;52.404;9.808;2023-04-03T05:57:11;-0.80;99.90
43227;DHT22;28839;52.404;9.808;2023-04-03T06:04:06;-0.40;99.90
43227;DHT22;28839;52.404;9.808;2023-04-03T06:11:01;0.10;99.90
43227;DHT22;28839;52.404;9.808;2023-04-03T06:17:55;1.20;99.90
43227;DHT22;28839;52.404;9.808;2023-04-03T06:24:51;2.70;99.90
43227;DHT22;28839;52.404;9.808;2023-04-03T06:31:45;3.30;99.90
43227;DHT22;28839;52.404;9.808;2023-04-03T06:38:39;3.60;99.90
43227;DHT22;28839;52.404;9.808;2023-04-03T06:45:34;4.30;99.90
43227;DHT22;28839;52.404;9.808;2023-04-03T06:52:28;4.80;99.90
43227;DHT22;28839;52.404;9.808;2023-04-03T06:59:22;4.00;99.90
43227;DHT22;28839;52.404;9.808;2023-04-03T07:06:18;4.40;99.90
43227;DHT22;28839;52.404;9.808;2023-04-03T07:13:12;4.70;99.90
43227;DHT22;28839;52.404;9.808;2023-04-03T07:20:07;5.10;99.90
43227;DHT22;28839;52.404;9.808;2023-04-03T07:27:03;6.50;99.90
43227;DHT22;28839;52.404;9.808;2023-04-03T07:33:58;6.60;99.90
43227;DHT22;28839;52.404;9.808;2023-04-03T07:40:52;6.40;99.90
43227;DHT22;28839;52.404;9.808;2023-04-03T07:47:47;7.60;99.90
43227;DHT22;28839;52.404;9.808;2023-04-03T07:54:41;7.60;99.90
43227;DHT22;28839;52.404;9.808;2023-04-03T08:01:35;7.20;99.90
43227;DHT22;28839;52.404;9.808;2023-04-03T08:08:31;6.90;99.90
43227;DHT22;28839;52.404;9.808;2023-04-03T08:15:25;6.60;99.90
43227;DHT22;28839;52.404;9.808;2023-04-03T08:22:19;6.70;99.90
43227;DHT22;28839;52.404;9.808;2023-04-03T08:29:14;7.40;99.90
43227;DHT22;28839;52.404;9.808;2023-04-03T08:36:17;7.60;99.90
43227;DHT22;28839;52.404;9.808;2023-04-03T08:43:27;7.00;99.90
43227;DHT22;28839;52.404;9.808;2023-04-03T08:50:28;6.80;99.90
43227;DHT22;28839;52.404;9.808;2023-04-03T08:57:29;6.70;99.90
43227;DHT22;28839;52.404;9.808;2023-04-03T09:04:26;6.90;99.90
43227;DHT22;28839;52.404;9.808;2023-04-03T09:11:25;7.00;99.90
43227;DHT22;28839;52.404;9.808;2023-04-03T09:18:24;6.60;99.90
43227;DHT22;28839;52.404;9.808;2023-04-03T09:25:22;7.10;99.90
43227;DHT22;28839;52.404;9.808;2023-04-03T09:32:25;6.50;99.90
43227;DHT22;28839;52.404;9.808;2023-04-03T09:39:21;7.30;99.90
43227;DHT22;28839;52.404;9.808;2023-04-03T09:46:25;7.50;99.90
43227;DHT22;28839;52.404;9.808;2023-04-03T09:53:29;7.60;99.90
43227;DHT22;28839;52.404;9.808;2023-04-03T10:00:24;8.20;99.90
43227;DHT22;28839;52.404;9.808;2023-04-03T10:07:31;6.40;99.90
43227;DHT22;28839;52.404;9.808;2023-04-03T10:14:26;6.80;99.90
43227;DHT22;28839;52.404;9.808;2023-04-03T10:21:32;7.90;99.90
43227;DHT22;28839;52.404;9.808;2023-04-03T10:28:33;7.90;99.90
43227;DHT22;28839;52.404;9.808;2023-04-03T10:35:39;6.60;99.90
43227;DHT22;28839;52.404;9.808;2023-04-03T10:42:41;6.60;99.90
43227;DHT22;28839;52.404;9.808;2023-04-03T10:49:46;7.70;99.90
43227;DHT22;28839;52.404;9.808;2023-04-03T10:56:48;6.70;99.90
43227;DHT22;28839;52.404;9.808;2023-04-03T11:03:46;7.80;99.90
43227;DHT22;28839;52.404;9.808;2023-04-03T11:10:42;8.30;99.90
43227;DHT22;28839;52.404;9.808;2023-04-03T11:17:41;8.60;99.40
43227;DHT22;28839;52.404;9.808;2023-04-03T11:24:42;8.60;99.10
43227;DHT22;28839;52.404;9.808;2023-04-03T11:31:45;7.30;99.80
43227;DHT22;28839;52.404;9.808;2023-04-03T11:38:47;6.70;99.90
43227;DHT22;28839;52.404;9.808;2023-04-03T11:45:53;6.10;99.90
43227;DHT22;28839;52.404;9.808;2023-04-03T11:53:02;6.90;99.90
43227;DHT22;28839;52.404;9.808;2023-04-03T11:59:57;8.00;99.90
43227;DHT22;28839;52.404;9.808;2023-04-03T12:07:16;7.40;99.90
43227;DHT22;28839;52.404;9.808;2023-04-03T12:14:15;7.00;99.90
43227;DHT22;28839;52.404;9.808;2023-04-03T12:21:12;6.90;99.90
43227;DHT22;28839;52.404;9.808;2023-04-03T12:28:06;6.80;99.90
43227;DHT22;28839;52.404;9.808;2023-04-03T12:35:15;6.30;99.90
43227;DHT22;28839;52.404;9.808;2023-04-03T12:42:32;6.80;99.90
43227;DHT22;28839;52.404;9.808;2023-04-03T12:49:37;7.10;99.60
43227;DHT22;28839;52.404;9.808;2023-04-03T12:56:32;7.00;99.70
43227;DHT22;28839;52.404;9.808;2023-04-03T13:03:28;7.80;98.90
43227;DHT22;28839;52.404;9.808;2023-04-03T13:10:22;6.80;98.50
43227;DHT22;28839;52.404;9.808;2023-04-03T13:17:16;6.90;98.90
43227;DHT22;28839;52.404;9.808;2023-04-03T13:24:12;7.50;98.20
43227;DHT22;28839;52.404;9.808;2023-04-03T13:31:12;7.80;97.80
43227;DHT22;28839;52.404;9.808;2023-04-03T13:38:23;7.10;99.50
43227;DHT22;28839;52.404;9.808;2023-04-03T13:45:22;7.20;99.90
43227;DHT22;28839;52.404;9.808;2023-04-03T13:52:26;6.80;99.90
43227;DHT22;28839;52.404;9.808;2023-04-03T13:59:24;7.20;99.90
43227;DHT22;28839;52.404;9.808;2023-04-03T14:06:19;7.30;98.10
43227;DHT22;28839;52.404;9.808;2023-04-03T14:13:14;7.40;98.30
43227;DHT22;28839;52.404;9.808;2023-04-03T14:20:14;7.70;97.60
43227;DHT22;28839;52.404;9.808;2023-04-03T14:27:15;7.90;98.20
43227;DHT22;28839;52.404;9.808;2023-04-03T14:34:10;7.20;97.90
43227;DHT22;28839;52.404;9.808;2023-04-03T14:41:04;7.20;98.50
43227;DHT22;28839;52.404;9.808;2023-04-03T14:47:59;7.30;98.10
43227;DHT22;28839;52.404;9.808;2023-04-03T14:54:53;7.90;98.30
43227;DHT22;28839;52.404;9.808;2023-04-03T15:01:48;7.10;99.40
43227;DHT22;28839;52.404;9.808;2023-04-03T15:08:44;7.00;98.80
43227;DHT22;28839;52.404;9.808;2023-04-03T15:15:39;7.40;97.30
43227;DHT22;28839;52.404;9.808;2023-04-03T15:22:33;7.60;97.20
43227;DHT22;28839;52.404;9.808;2023-04-03T15:29:28;7.80;98.00
43227;DHT22;28839;52.404;9.808;2023-04-03T15:36:22;7.60;98.50
43227;DHT22;28839;52.404;9.808;2023-04-03T15:43:16;6.80;98.70
43227;DHT22;28839;52.404;9.808;2023-04-03T15:50:12;6.50;99.60
43227;DHT22;28839;52.404;9.808;2023-04-03T15:57:06;6.60;98.90
43227;DHT22;28839;52.404;9.808;2023-04-03T16:03:59;7.00;98.80
43227;DHT22;28839;52.404;9.808;2023-04-03T16:10:55;7.00;98.60
43227;DHT22;28839;52.404;9.808;2023-04-03T16:17:48;7.30;99.30
43227;DHT22;28839;52.404;9.808;2023-04-03T16:24:42;7.00;99.00
43227;DHT22;28839;52.404;9.808;2023-04-03T16:31:37;6.60;98.60
43227;DHT22;28839;52.404;9.808;2023-04-03T16:38:31;6.60;99.40
43227;DHT22;28839;52.404;9.808;2023-04-03T16:45:25;6.30;99.90
43227;DHT22;28839;52.404;9.808;2023-04-03T16:52:22;6.20;99.90
43227;DHT22;28839;52.404;9.808;2023-04-03T16:59:16;6.40;99.90
43227;DHT22;28839;52.404;9.808;2023-04-03T17:06:12;6.70;99.90
43227;DHT22;28839;52.404;9.808;2023-04-03T17:13:09;6.40;99.90
43227;DHT22;28839;52.404;9.808;2023-04-03T17:20:04;6.20;99.90
43227;DHT22;28839;52.404;9.808;2023-04-03T17:26:58;6.00;99.90
43227;DHT22;28839;52.404;9.808;2023-04-03T17:33:53;5.90;99.90
43227;DHT22;28839;52.404;9.808;2023-04-03T17:40:47;6.00;99.90
43227;DHT22;28839;52.404;9.808;2023-04-03T17:47:41;5.80;99.90
43227;DHT22;28839;52.404;9.808;2023-04-03T17:54:36;5.60;99.90
43227;DHT22;28839;52.404;9.808;2023-04-03T18:01:32;5.40;99.90
43227;DHT22;28839;52.404;9.808;2023-04-03T18:08:27;5.60;99.90
43227;DHT22;28839;52.404;9.808;2023-04-03T18:15:24;5.50;99.90
43227;DHT22;28839;52.404;9.808;2023-04-03T18:22:20;5.50;99.90
43227;DHT22;28839;52.404;9.808;2023-04-03T18:29:15;5.50;99.90
43227;DHT22;28839;52.404;9.808;2023-04-03T18:36:10;5.20;99.90
43227;DHT22;28839;52.404;9.808;2023-04-03T18:43:04;5.10;99.90
43227;DHT22;28839;52.404;9.808;2023-04-03T18:49:58;5.10;99.90
43227;DHT22;28839;52.404;9.808;2023-04-03T18:56:53;4.70;99.90
43227;DHT22;28839;52.404;9.808;2023-04-03T19:03:47;4.50;99.90
43227;DHT22;28839;52.404;9.808;2023-04-03T19:10:41;4.40;99.90
43227;DHT22;28839;52.404;9.808;2023-04-03T19:17:36;4.30;99.90
43227;DHT22;28839;52.404;9.808;2023-04-03T19:24:30;4.20;99.90
43227;DHT22;28839;52.404;9.808;2023-04-03T19:31:24;4.20;99.90
43227;DHT22;28839;52.404;9.808;2023-04-03T19:38:19;4.20;99.90
43227;DHT22;28839;52.404;9.808;2023-04-03T19:45:13;3.90;99.90
43227;DHT22;28839;52.404;9.808;2023-04-03T19:52:09;3.70;99.90
43227;DHT22;28839;52.404;9.808;2023-04-03T19:59:04;3.70;99.90
43227;DHT22;28839;52.404;9.808;2023-04-03T20:05:58;3.80;99.90
43227;DHT22;28839;52.404;9.808;2023-04-03T20:12:52;3.80;99.90
43227;DHT22;28839;52.404;9.808;2023-04-03T20:19:47;3.60;99.90
43227;DHT22;28839;52.404;9.808;2023-04-03T20:26:42;3.40;99.90
43227;DHT22;28839;52.404;9.808;2023-04-03T20:33:38;3.30;99.90
43227;DHT22;28839;52.404;9.808;2023-04-03T20:40:33;3.10;99.90
43227;DHT22;28839;52.404;9.808;2023-04-03T20:47:29;3.00;99.90
43227;DHT22;28839;52.404;9.808;2023-04-03T20:54:23;2.70;99.90
43227;DHT22;28839;52.404;9.808;2023-04-03T21:01:20;2.60;99.90
43227;DHT22;28839;52.404;9.808;2023-04-03T21:22:40;2.30;99.90
43227;DHT22;28839;52.404;9.808;2023-04-03T21:29:36;2.20;99.90
43227;DHT22;28839;52.404;9.808;2023-04-03T21:36:38;1.90;99.90
43227;DHT22;28839;52.404;9.808;2023-04-03T21:43:33;2.00;99.90
43227;DHT22;28839;52.404;9.808;2023-04-03T21:50:27;1.80;99.90
43227;DHT22;28839;52.404;9.808;2023-04-03T21:57:21;1.70;99.90
43227;DHT22;28839;52.404;9.808;2023-04-03T22:04:16;1.70;99.90
43227;DHT22;28839;52.404;9.808;2023-04-03T22:11:12;1.50;99.90
43227;DHT22;28839;52.404;9.808;2023-04-03T22:18:06;1.40;99.90
43227;DHT22;28839;52.404;9.808;2023-04-03T22:25:01;1.30;99.90
43227;DHT22;28839;52.404;9.808;2023-04-03T22:31:55;1.20;99.90
43227;DHT22;28839;52.404;9.808;2023-04-03T22:38:49;1.10;99.90
43227;DHT22;28839;52.404;9.808;2023-04-03T22:45:48;1.00;99.90
43227;DHT22;28839;52.404;9.808;2023-04-03T22:52:42;0.90;99.90
43227;DHT22;28839;52.404;9.808;2023-04-03T22:59:36;0.80;99.90
43227;DHT22;28839;52.404;9.808;2023-04-03T23:06:31;0.60;99.90
43227;DHT22;28839;52.404;9.808;2023-04-03T23:13:26;0.40;99.90
43227;DHT22;28839;52.404;9.808;2023-04-03T23:20:19;0.30;99.90
43227;DHT22;28839;52.404;9.808;2023-04-03T23:27:15;0.30;99.90
43227;DHT22;28839;52.404;9.808;2023-04-03T23:34:09;0.20;99.90
43227;DHT22;28839;52.404;9.808;2023-04-03T23:41:02;0.20;99.90
43227;DHT22;28839;52.404;9.808;2023-04-03T23:47:58;0.10;99.90
43227;DHT22;28839;52.404;9.808;2023-04-03T23:54:51;0.00;99.90
